Time;durP1;ratioP1;P1;durP2;ratioP2;P2;SDS_P1;SDS_P2;PMS_P1;PMS_P2;Temp;Humidity;BMP_temperature;BMP_pressure;BME280_temperature;BME280_humidity;BME280_pressure;Samples;Min_cycle;Max_cycle;Signal;HPM_P1;HPM_P2
2022/04/12 00:02:09;;;;;;;;;;;7.90;99.90;;;;;;5089870;28;20369;-77
2022/04/12 00:04:35;;;;;;;;;;;7.90;99.90;;;;;;5089356;28;19978;-76
2022/04/12 00:07:00;;;;;;;;;;;7.90;99.90;;;;;;5089631;28;20191;-76
2022/04/12 00:09:26;;;;;;;;;;;7.90;99.90;;;;;;5088662;28;19924;-76
2022/04/12 00:11:52;;;;;;;;;;;7.90;99.90;;;;;;5089816;28;19982;-76
2022/04/12 00:14:17;;;;;;;;;;;7.90;99.90;;;;;;5089564;28;19968;-77
2022/04/12 00:16:43;;;;;;;;;;;7.90;99.90;;;;;;5089488;28;19931;-77
2022/04/12 00:19:10;;;;;;;;;;;7.90;99.90;;;;;;5089790;28;20293;-76
2022/04/12 00:21:35;;;;;;;;;;;7.80;99.90;;;;;;5089189;28;19986;-77
2022/04/12 00:24:02;;;;;;;;;;;7.80;99.90;;;;;;5089035;28;19979;-76
2022/04/12 00:26:27;;;;;;;;;;;7.80;99.90;;;;;;5087934;28;19946;-76
2022/04/12 00:28:53;;;;;;;;;;;7.80;99.90;;;;;;5088659;28;20014;-77
2022/04/12 00:31:19;;;;;;;;;;;7.80;99.90;;;;;;5086682;28;19969;-77
2022/04/12 00:33:44;;;;;;;;;;;7.80;99.90;;;;;;5087079;28;20015;-76
2022/04/12 00:36:10;;;;;;;;;;;7.70;99.90;;;;;;5087419;28;19928;-76
2022/04/12 00:38:35;;;;;;;;;;;7.80;99.90;;;;;;5088654;28;20008;-76
2022/04/12 00:41:02;;;;;;;;;;;7.70;99.90;;;;;;5086549;28;19932;-76
2022/04/12 00:43:29;;;;;;;;;;;7.80;99.90;;;;;;5088371;28;19953;-76
2022/04/12 00:46:00;;;;;;;;;;;7.80;99.90;;;;;;5088597;28;19931;-77
2022/04/12 00:48:29;;;;;;;;;;;7.80;99.90;;;;;;5088305;28;20010;-76
2022/04/12 00:50:54;;;;;;;;;;;7.80;99.90;;;;;;5088258;28;19931;-76
2022/04/12 00:53:20;;;;;;;;;;;7.80;99.90;;;;;;5088185;28;19924;-76
2022/04/12 00:55:46;;;;;;;;;;;7.80;99.90;;;;;;5088424;28;19924;-76
2022/04/12 00:58:11;;;;;;;;;;;7.80;99.90;;;;;;5088299;28;19924;-76
2022/04/12 01:00:37;;;;;;;;;;;7.70;99.90;;;;;;5088071;28;19967;-76
2022/04/12 01:03:03;;;;;;;;;;;7.70;99.90;;;;;;5088287;28;19924;-76
2022/04/12 01:05:28;;;;;;;;;;;7.80;99.90;;;;;;5088431;28;20470;-76
2022/04/12 01:07:54;;;;;;;;;;;7.80;99.90;;;;;;5087936;28;19924;-76
2022/04/12 01:10:20;;;;;;;;;;;7.70;99.90;;;;;;5088132;28;19960;-77
2022/04/12 01:12:46;;;;;;;;;;;7.70;99.90;;;;;;5088226;28;19924;-76
2022/04/12 01:15:16;;;;;;;;;;;7.70;99.90;;;;;;5087805;28;19924;-76
2022/04/12 01:17:43;;;;;;;;;;;7.70;99.90;;;;;;5088043;28;19924;-77
2022/04/12 01:20:09;;;;;;;;;;;7.70;99.90;;;;;;5088314;28;19976;-77
2022/04/12 01:22:36;;;;;;;;;;;7.70;99.90;;;;;;5090828;28;19931;-76
2022/04/12 01:25:02;;;;;;;;;;;7.70;99.90;;;;;;5091734;28;19932;-76
2022/04/12 01:27:27;;;;;;;;;;;7.70;99.90;;;;;;5073607;28;19977;-77
2022/04/12 01:29:53;;;;;;;;;;;7.60;99.90;;;;;;5090119;28;20049;-76
2022/04/12 01:32:18;;;;;;;;;;;7.60;99.90;;;;;;5091426;28;19998;-77
2022/04/12 01:34:44;;;;;;;;;;;7.60;99.90;;;;;;5090457;28;20374;-77
2022/04/12 01:37:09;;;;;;;;;;;7.60;99.90;;;;;;5091415;28;19928;-76
2022/04/12 01:39:35;;;;;;;;;;;7.60;99.90;;;;;;5073879;28;19928;-76
2022/04/12 01:42:01;;;;;;;;;;;7.50;99.90;;;;;;5092201;28;19982;-77
2022/04/12 01:44:26;;;;;;;;;;;7.50;99.90;;;;;;5092317;28;19931;-77
2022/04/12 01:46:52;;;;;;;;;;;7.60;99.90;;;;;;5092521;28;19931;-77
2022/04/12 01:49:17;;;;;;;;;;;7.50;99.90;;;;;;5091667;28;19928;-77
2022/04/12 01:51:43;;;;;;;;;;;7.50;99.90;;;;;;5091089;28;19924;-77
2022/04/12 01:54:08;;;;;;;;;;;7.50;99.90;;;;;;5091526;28;19982;-77
2022/04/12 01:56:34;;;;;;;;;;;7.50;99.90;;;;;;5091450;28;19968;-77
2022/04/12 01:59:00;;;;;;;;;;;7.50;99.90;;;;;;5091171;28;20297;-77
2022/04/12 02:01:26;;;;;;;;;;;7.50;99.90;;;;;;5092026;28;19946;-77
2022/04/12 02:03:52;;;;;;;;;;;7.50;99.90;;;;;;5091691;28;20448;-77
2022/04/12 02:06:18;;;;;;;;;;;7.50;99.90;;;;;;5091815;28;20595;-77
2022/04/12 02:08:44;;;;;;;;;;;7.50;99.90;;;;;;5091763;28;19931;-77
2022/04/12 02:11:10;;;;;;;;;;;7.50;99.90;;;;;;5092051;28;19931;-77
2022/04/12 02:13:35;;;;;;;;;;;7.50;99.90;;;;;;5091964;28;20272;-77
2022/04/12 02:16:01;;;;;;;;;;;7.50;99.90;;;;;;5091607;28;19928;-77
2022/04/12 02:18:26;;;;;;;;;;;7.40;99.90;;;;;;5091016;28;19924;-77
2022/04/12 02:20:52;;;;;;;;;;;7.40;99.90;;;;;;5091502;28;19954;-77
2022/04/12 02:23:17;;;;;;;;;;;7.40;99.90;;;;;;5090288;28;19924;-77
2022/04/12 02:25:43;;;;;;;;;;;7.40;99.90;;;;;;5091743;28;19969;-76
2022/04/12 02:28:08;;;;;;;;;;;7.40;99.90;;;;;;5089969;28;19924;-77
2022/04/12 02:30:34;;;;;;;;;;;7.40;99.90;;;;;;5091397;28;19935;-77
2022/04/12 02:32:59;;;;;;;;;;;7.30;99.90;;;;;;5090020;28;19967;-77
2022/04/12 02:35:25;;;;;;;;;;;7.30;99.90;;;;;;5089858;28;19924;-77
2022/04/12 02:37:51;;;;;;;;;;;7.30;99.90;;;;;;5091378;28;19982;-77
2022/04/12 02:40:17;;;;;;;;;;;7.20;99.90;;;;;;5090270;28;19928;-77
2022/04/12 02:42:43;;;;;;;;;;;7.20;99.90;;;;;;5090208;28;19924;-77
2022/04/12 02:45:09;;;;;;;;;;;7.20;99.90;;;;;;5091186;28;20443;-77
2022/04/12 02:47:34;;;;;;;;;;;7.10;99.90;;;;;;5091087;28;19976;-76
2022/04/12 02:49:59;;;;;;;;;;;7.10;99.90;;;;;;5090792;28;19924;-77
2022/04/12 02:52:25;;;;;;;;;;;7.10;99.90;;;;;;5089783;28;19924;-77
2022/04/12 02:54:50;;;;;;;;;;;7.10;99.90;;;;;;5072732;28;19928;-76
2022/04/12 02:57:16;;;;;;;;;;;7.10;99.90;;;;;;5089147;28;20499;-77
2022/04/12 02:59:42;;;;;;;;;;;7.10;99.90;;;;;;5089749;28;20025;-77
2022/04/12 03:02:07;;;;;;;;;;;7.10;99.90;;;;;;5091212;28;20278;-77
2022/04/12 03:04:33;;;;;;;;;;;7.10;99.90;;;;;;5089370;28;20028;-77
2022/04/12 03:06:59;;;;;;;;;;;7.10;99.90;;;;;;5090823;28;19947;-77
2022/04/12 03:09:24;;;;;;;;;;;7.00;99.90;;;;;;5090469;28;19924;-77
2022/04/12 03:11:50;;;;;;;;;;;7.00;99.90;;;;;;5089458;28;20094;-77
2022/04/12 03:14:15;;;;;;;;;;;7.00;99.90;;;;;;5090560;28;20085;-77
2022/04/12 03:16:42;;;;;;;;;;;7.00;99.90;;;;;;5090628;28;19932;-77
2022/04/12 03:19:07;;;;;;;;;;;7.00;99.90;;;;;;5089308;28;20019;-77
2022/04/12 03:21:33;;;;;;;;;;;7.00;99.90;;;;;;5090324;28;20014;-77
2022/04/12 03:23:58;;;;;;;;;;;7.00;99.90;;;;;;5090311;28;20003;-77
2022/04/12 03:26:24;;;;;;;;;;;7.00;99.90;;;;;;5090419;28;20293;-77
2022/04/12 03:28:49;;;;;;;;;;;7.00;99.90;;;;;;5090475;28;19928;-77
2022/04/12 03:31:15;;;;;;;;;;;7.00;99.90;;;;;;5090236;28;19931;-77
2022/04/12 03:33:40;;;;;;;;;;;7.00;99.90;;;;;;5089206;28;19938;-77
2022/04/12 03:36:06;;;;;;;;;;;7.00;99.90;;;;;;5089831;28;19932;-77
2022/04/12 03:38:34;;;;;;;;;;;7.00;99.90;;;;;;5088993;28;19924;-77
2022/04/12 03:40:59;;;;;;;;;;;7.00;99.90;;;;;;5090027;28;20507;-77
2022/04/12 03:43:25;;;;;;;;;;;7.00;99.90;;;;;;5088696;28;19924;-77
2022/04/12 03:45:50;;;;;;;;;;;7.00;99.90;;;;;;5089691;28;19935;-77
2022/04/12 03:48:16;;;;;;;;;;;7.00;99.90;;;;;;5089939;28;19928;-77
2022/04/12 03:50:42;;;;;;;;;;;6.90;99.90;;;;;;5090181;28;19923;-77
2022/04/12 03:53:07;;;;;;;;;;;6.90;99.90;;;;;;5089896;28;19960;-77
2022/04/12 03:55:35;;;;;;;;;;;6.90;99.90;;;;;;5089388;28;20015;-77
2022/04/12 03:58:01;;;;;;;;;;;6.90;99.90;;;;;;5088486;28;20135;-77
2022/04/12 04:00:28;;;;;;;;;;;6.90;99.90;;;;;;5089969;28;20409;-77
2022/04/12 04:02:53;;;;;;;;;;;6.90;99.90;;;;;;5088750;28;19924;-77
2022/04/12 04:05:19;;;;;;;;;;;6.90;99.90;;;;;;5089436;28;19935;-77
2022/04/12 04:07:44;;;;;;;;;;;6.90;99.90;;;;;;5089756;28;19931;-77
2022/04/12 04:10:10;;;;;;;;;;;6.80;99.90;;;;;;5089720;28;19932;-77
2022/04/12 04:12:36;;;;;;;;;;;6.80;99.90;;;;;;5088557;28;19924;-77
2022/04/12 04:15:03;;;;;;;;;;;6.80;99.90;;;;;;5088463;28;19932;-77
2022/04/12 04:17:28;;;;;;;;;;;6.80;99.90;;;;;;5089240;28;19924;-77
2022/04/12 04:19:54;;;;;;;;;;;6.80;99.90;;;;;;5089602;28;20283;-77
2022/04/12 04:22:19;;;;;;;;;;;6.80;99.90;;;;;;5088446;28;19924;-77
2022/04/12 04:24:45;;;;;;;;;;;6.80;99.90;;;;;;5089356;28;19985;-77
2022/04/12 04:27:11;;;;;;;;;;;6.80;99.90;;;;;;5089759;28;19928;-77
2022/04/12 04:29:36;;;;;;;;;;;6.80;99.90;;;;;;5089283;28;19924;-77
2022/04/12 04:32:02;;;;;;;;;;;6.80;99.90;;;;;;5088003;28;20038;-77
2022/04/12 04:34:27;;;;;;;;;;;6.80;99.90;;;;;;5089709;28;19931;-77
2022/04/12 04:36:53;;;;;;;;;;;6.80;99.90;;;;;;5088481;28;20294;-77
2022/04/12 04:39:18;;;;;;;;;;;6.80;99.90;;;;;;5089395;28;19924;-77
2022/04/12 04:41:44;;;;;;;;;;;6.80;99.90;;;;;;5087757;28;19924;-77
2022/04/12 04:44:09;;;;;;;;;;;6.70;99.90;;;;;;5088761;28;19935;-77
2022/04/12 04:46:35;;;;;;;;;;;6.80;99.90;;;;;;5088307;28;20386;-77
2022/04/12 04:49:00;;;;;;;;;;;6.70;99.90;;;;;;5089168;28;20018;-77
2022/04/12 04:51:26;;;;;;;;;;;6.70;99.90;;;;;;5087817;28;20023;-77
2022/04/12 04:53:58;;;;;;;;;;;6.70;99.90;;;;;;5089673;28;20121;-77
2022/04/12 04:56:25;;;;;;;;;;;6.70;99.90;;;;;;5090555;28;20339;-77
2022/04/12 04:58:50;;;;;;;;;;;6.70;99.90;;;;;;5093219;28;19924;-77
2022/04/12 05:01:16;;;;;;;;;;;6.70;99.90;;;;;;5074445;28;19924;-77
2022/04/12 05:03:41;;;;;;;;;;;6.70;99.90;;;;;;5092924;28;19985;-77
2022/04/12 05:06:07;;;;;;;;;;;6.70;99.90;;;;;;5093207;28;19924;-77
2022/04/12 05:08:32;;;;;;;;;;;6.70;99.90;;;;;;5093454;28;20839;-77
2022/04/12 05:10:58;;;;;;;;;;;6.70;99.90;;;;;;5092522;28;20031;-77
2022/04/12 05:13:23;;;;;;;;;;;6.70;99.90;;;;;;5093089;28;19935;-77
2022/04/12 05:15:49;;;;;;;;;;;6.70;99.90;;;;;;5091852;28;20469;-77
2022/04/12 05:18:14;;;;;;;;;;;6.70;99.90;;;;;;5092803;28;20468;-77
2022/04/12 05:20:40;;;;;;;;;;;6.70;99.90;;;;;;5092129;28;19938;-77
2022/04/12 05:23:05;;;;;;;;;;;6.70;99.90;;;;;;5091726;28;19993;-78
2022/04/12 05:25:31;;;;;;;;;;;6.70;99.90;;;;;;5091528;28;19924;-77
2022/04/12 05:27:56;;;;;;;;;;;6.70;99.90;;;;;;5091522;28;19955;-78
2022/04/12 05:30:22;;;;;;;;;;;6.70;99.90;;;;;;5091018;28;19934;-77
2022/04/12 05:32:48;;;;;;;;;;;6.70;99.90;;;;;;5091940;28;20024;-78
2022/04/12 05:35:14;;;;;;;;;;;6.70;99.90;;;;;;5091902;28;19931;-78
2022/04/12 05:37:40;;;;;;;;;;;6.70;99.90;;;;;;5091167;28;20019;-78
2022/04/12 05:40:06;;;;;;;;;;;6.70;99.90;;;;;;5069044;28;20371;-77
2022/04/12 05:42:31;;;;;;;;;;;6.70;99.90;;;;;;5089899;28;20014;-78
2022/04/12 05:44:57;;;;;;;;;;;6.70;99.90;;;;;;5088001;28;19947;-77
2022/04/12 05:47:22;;;;;;;;;;;6.80;99.90;;;;;;5090397;28;19931;-78
2022/04/12 05:49:48;;;;;;;;;;;6.80;99.90;;;;;;5090261;28;20022;-77
2022/04/12 05:52:13;;;;;;;;;;;6.90;99.90;;;;;;5092293;28;19924;-77
2022/04/12 05:54:39;;;;;;;;;;;6.90;99.90;;;;;;5091270;28;19924;-81
2022/04/12 05:57:23;;;;;;;;;;;7.00;99.90;;;;;;5077311;28;19937;-77
2022/04/12 05:59:49;;;;;;;;;;;7.10;99.90;;;;;;5089370;28;19977;-77
2022/04/12 06:02:14;;;;;;;;;;;7.20;99.90;;;;;;5089681;28;19932;-77
2022/04/12 06:04:40;;;;;;;;;;;7.40;99.90;;;;;;5091447;28;19924;-77
2022/04/12 06:07:06;;;;;;;;;;;7.50;99.90;;;;;;5090105;28;19928;-75
2022/04/12 06:09:31;;;;;;;;;;;7.60;99.90;;;;;;5091916;28;20313;-75
2022/04/12 06:11:57;;;;;;;;;;;7.80;99.90;;;;;;5090902;28;19928;-75
2022/04/12 06:14:22;;;;;;;;;;;7.90;99.90;;;;;;5091448;28;20413;-75
2022/04/12 06:16:48;;;;;;;;;;;8.00;99.90;;;;;;5091672;28;19925;-75
2022/04/12 06:19:13;;;;;;;;;;;8.10;99.90;;;;;;5091488;28;19924;-75
2022/04/12 06:21:39;;;;;;;;;;;8.20;99.90;;;;;;5091532;28;19989;-75
2022/04/12 06:24:04;;;;;;;;;;;8.30;99.90;;;;;;5091067;28;19924;-76
2022/04/12 06:26:30;;;;;;;;;;;8.30;99.90;;;;;;5091892;28;19935;-76
2022/04/12 06:28:55;;;;;;;;;;;8.30;99.90;;;;;;5091261;28;19924;-76
2022/04/12 06:31:21;;;;;;;;;;;8.40;99.90;;;;;;5091048;28;19932;-76
2022/04/12 06:33:47;;;;;;;;;;;8.40;99.90;;;;;;5091140;28;19924;-76
2022/04/12 06:36:12;;;;;;;;;;;8.40;99.90;;;;;;5091324;28;19934;-76
2022/04/12 06:38:38;;;;;;;;;;;8.40;99.90;;;;;;5090046;28;19924;-76
2022/04/12 06:41:03;;;;;;;;;;;8.40;99.90;;;;;;5089792;28;19975;-76
2022/04/12 06:43:29;;;;;;;;;;;8.40;99.90;;;;;;5070801;28;19924;-77
2022/04/12 06:45:54;;;;;;;;;;;8.40;99.90;;;;;;5070997;28;20027;-77
2022/04/12 06:48:20;;;;;;;;;;;8.40;99.90;;;;;;5073342;28;20446;-77
2022/04/12 06:50:45;;;;;;;;;;;8.40;99.90;;;;;;5077162;28;19924;-76
2022/04/12 06:53:11;;;;;;;;;;;8.50;99.90;;;;;;5075706;28;19932;-76
2022/04/12 06:55:37;;;;;;;;;;;8.50;99.90;;;;;;5089445;28;19924;-76
2022/04/12 06:58:02;;;;;;;;;;;8.50;99.90;;;;;;5089643;28;19924;-76
2022/04/12 07:00:28;;;;;;;;;;;8.50;99.90;;;;;;5078887;28;20387;-77
2022/04/12 07:02:54;;;;;;;;;;;8.60;99.90;;;;;;5089813;28;19924;-77
2022/04/12 07:05:19;;;;;;;;;;;8.60;99.90;;;;;;5079703;28;19930;-77
2022/04/12 07:07:45;;;;;;;;;;;8.60;99.90;;;;;;5089378;28;19928;-75
2022/04/12 07:10:15;;;;;;;;;;;8.70;99.90;;;;;;5089096;28;19928;-76
2022/04/12 07:12:40;;;;;;;;;;;8.70;99.90;;;;;;5090696;28;19946;-76
2022/04/12 07:15:06;;;;;;;;;;;8.80;99.90;;;;;;5088122;28;19924;-75
2022/04/12 07:17:32;;;;;;;;;;;8.90;99.90;;;;;;5084380;28;19925;-76
2022/04/12 07:19:57;;;;;;;;;;;8.90;99.90;;;;;;5078632;28;20390;-76
2022/04/12 07:22:24;;;;;;;;;;;8.90;99.90;;;;;;5070046;28;20305;-76
2022/04/12 07:24:50;;;;;;;;;;;8.90;99.90;;;;;;5091365;28;19931;-76
2022/04/12 07:27:15;;;;;;;;;;;8.90;99.90;;;;;;5094317;28;20298;-76
2022/04/12 07:29:41;;;;;;;;;;;8.90;99.90;;;;;;5076504;28;20306;-76
2022/04/12 07:32:06;;;;;;;;;;;8.90;99.90;;;;;;5089225;28;19924;-76
2022/04/12 07:34:32;;;;;;;;;;;8.90;99.90;;;;;;5090295;28;19924;-77
2022/04/12 07:36:58;;;;;;;;;;;9.00;99.90;;;;;;5076337;28;19932;-77
2022/04/12 07:39:24;;;;;;;;;;;9.00;99.90;;;;;;5083294;28;19935;-77
2022/04/12 07:41:50;;;;;;;;;;;9.00;99.90;;;;;;5085432;28;19924;-77
2022/04/12 07:44:16;;;;;;;;;;;9.00;99.90;;;;;;5090145;28;19928;-77
2022/04/12 07:46:42;;;;;;;;;;;9.00;99.90;;;;;;5088238;28;19928;-77
2022/04/12 07:49:07;;;;;;;;;;;9.00;99.90;;;;;;5089305;28;19924;-77
2022/04/12 07:51:33;;;;;;;;;;;9.10;99.90;;;;;;5075616;28;19928;-75
2022/04/12 07:54:01;;;;;;;;;;;9.10;99.90;;;;;;5079958;28;19924;-75
2022/04/12 07:56:27;;;;;;;;;;;9.20;99.90;;;;;;5089526;28;19939;-75
2022/04/12 07:58:52;;;;;;;;;;;9.20;99.90;;;;;;5088127;28;19924;-76
2022/04/12 08:01:18;;;;;;;;;;;9.30;99.90;;;;;;5081948;28;19970;-76
2022/04/12 08:03:43;;;;;;;;;;;9.40;99.90;;;;;;5086042;28;19931;-77
2022/04/12 08:06:09;;;;;;;;;;;9.40;99.90;;;;;;5081213;28;19927;-77
2022/04/12 08:08:35;;;;;;;;;;;9.50;99.90;;;;;;5075247;28;20022;-77
2022/04/12 08:11:00;;;;;;;;;;;9.60;99.90;;;;;;5073128;28;20027;-77
2022/04/12 08:13:26;;;;;;;;;;;9.60;99.90;;;;;;5083446;28;19950;-77
2022/04/12 08:15:52;;;;;;;;;;;9.80;99.90;;;;;;5087787;28;20036;-77
2022/04/12 08:18:17;;;;;;;;;;;9.80;99.90;;;;;;5087491;28;19928;-77
2022/04/12 08:20:43;;;;;;;;;;;9.90;99.90;;;;;;5087488;28;20361;-77
2022/04/12 08:23:08;;;;;;;;;;;10.00;99.90;;;;;;5087670;28;19935;-77
2022/04/12 08:25:34;;;;;;;;;;;10.10;99.90;;;;;;5085380;28;19971;-76
2022/04/12 08:27:59;;;;;;;;;;;10.20;99.90;;;;;;5087445;28;19928;-77
2022/04/12 08:30:25;;;;;;;;;;;10.30;99.90;;;;;;5084390;28;19970;-80
2022/04/12 08:32:51;;;;;;;;;;;10.40;99.90;;;;;;5089263;28;19953;-77
2022/04/12 08:35:16;;;;;;;;;;;10.50;99.90;;;;;;5091248;28;19938;-77
2022/04/12 08:37:43;;;;;;;;;;;10.60;99.90;;;;;;5091789;28;20327;-77
2022/04/12 08:40:10;;;;;;;;;;;10.70;99.90;;;;;;5092355;28;19924;-77
2022/04/12 08:42:35;;;;;;;;;;;10.80;99.90;;;;;;5090908;28;19971;-77
2022/04/12 08:45:02;;;;;;;;;;;10.90;99.90;;;;;;5091991;28;20381;-77
2022/04/12 08:47:29;;;;;;;;;;;10.90;99.90;;;;;;5079824;28;19925;-77
2022/04/12 08:49:55;;;;;;;;;;;11.10;99.90;;;;;;5088895;28;19932;-76
2022/04/12 08:52:21;;;;;;;;;;;11.20;99.90;;;;;;5081733;28;20376;-75
2022/04/12 08:54:47;;;;;;;;;;;11.40;99.90;;;;;;5085018;28;19973;-76
2022/04/12 08:57:13;;;;;;;;;;;11.50;99.50;;;;;;5090288;28;19975;-76
2022/04/12 08:59:39;;;;;;;;;;;11.60;99.30;;;;;;5091750;28;19931;-77
2022/04/12 09:02:09;;;;;;;;;;;11.80;99.80;;;;;;5073915;28;19931;-76
2022/04/12 09:04:34;;;;;;;;;;;11.90;99.90;;;;;;5071851;28;19925;-77
2022/04/12 09:07:00;;;;;;;;;;;12.10;99.10;;;;;;5076445;28;19928;-76
2022/04/12 09:09:29;;;;;;;;;;;12.20;97.40;;;;;;5079427;28;19967;-76
2022/04/12 09:12:11;;;;;;;;;;;12.30;96.50;;;;;;5091883;28;20444;-77
2022/04/12 09:14:37;;;;;;;;;;;12.40;97.20;;;;;;5091747;28;20341;-76
2022/04/12 09:17:03;;;;;;;;;;;12.40;97.20;;;;;;5089998;28;19924;-76
2022/04/12 09:19:36;;;;;;;;;;;12.50;97.30;;;;;;5093092;28;19924;-76
2022/04/12 09:22:08;;;;;;;;;;;12.70;97.60;;;;;;5084943;28;19931;-76
2022/04/12 09:24:33;;;;;;;;;;;13.00;98.00;;;;;;5078963;28;20014;-76
2022/04/12 09:26:59;;;;;;;;;;;13.40;96.00;;;;;;5091631;28;20007;-77
2022/04/12 09:29:29;;;;;;;;;;;13.70;95.00;;;;;;5075227;28;19924;-77
2022/04/12 09:31:55;;;;;;;;;;;14.00;93.80;;;;;;5075346;28;19973;-77
2022/04/12 09:34:20;;;;;;;;;;;14.30;93.60;;;;;;5092761;28;19924;-78
2022/04/12 09:36:46;;;;;;;;;;;14.60;91.00;;;;;;5091965;28;19924;-76
2022/04/12 09:39:15;;;;;;;;;;;14.60;90.60;;;;;;5072388;28;19928;-76
2022/04/12 09:41:41;;;;;;;;;;;14.70;91.50;;;;;;5076670;28;19928;-76
2022/04/12 09:44:11;;;;;;;;;;;14.90;91.60;;;;;;5090135;28;19931;-76
2022/04/12 09:46:38;;;;;;;;;;;15.00;91.80;;;;;;5092159;28;19977;-76
2022/04/12 09:49:04;;;;;;;;;;;15.20;91.40;;;;;;5085134;28;19978;-78
2022/04/12 09:51:30;;;;;;;;;;;15.40;90.60;;;;;;5087955;28;19928;-76
2022/04/12 09:53:56;;;;;;;;;;;15.70;90.20;;;;;;5105691;28;20029;-77
2022/04/12 09:56:25;;;;;;;;;;;16.00;87.80;;;;;;5092142;28;19938;-77
2022/04/12 09:58:52;;;;;;;;;;;16.30;87.00;;;;;;5078111;28;19931;-77
2022/04/12 10:01:18;;;;;;;;;;;16.60;84.50;;;;;;5072069;28;19936;-77
2022/04/12 10:03:45;;;;;;;;;;;16.80;82.60;;;;;;5086219;28;20408;-76
2022/04/12 10:06:12;;;;;;;;;;;17.00;80.30;;;;;;5089244;28;20402;-77
2022/04/12 10:08:38;;;;;;;;;;;17.10;79.20;;;;;;5078302;28;19974;-76
2022/04/12 10:11:04;;;;;;;;;;;17.20;78.40;;;;;;5082236;28;20402;-77
2022/04/12 10:13:30;;;;;;;;;;;17.40;78.40;;;;;;5089792;28;19986;-77
2022/04/12 10:15:56;;;;;;;;;;;17.80;75.70;;;;;;5091548;28;19967;-75
2022/04/12 10:18:21;;;;;;;;;;;17.90;74.80;;;;;;5083780;28;19925;-76
2022/04/12 10:20:47;;;;;;;;;;;18.00;76.30;;;;;;5090195;28;19923;-76
2022/04/12 10:23:15;;;;;;;;;;;18.10;77.20;;;;;;5089946;28;19935;-75
2022/04/12 10:25:40;;;;;;;;;;;18.40;74.90;;;;;;5090012;28;19924;-76
2022/04/12 10:28:06;;;;;;;;;;;18.60;74.40;;;;;;5090005;28;19969;-76
2022/04/12 10:30:32;;;;;;;;;;;18.70;77.00;;;;;;5092450;28;19982;-76
2022/04/12 10:32:57;;;;;;;;;;;18.80;73.90;;;;;;5089766;28;19968;-76
2022/04/12 10:35:23;;;;;;;;;;;18.70;73.10;;;;;;5088412;28;19924;-76
2022/04/12 10:37:51;;;;;;;;;;;18.70;72.00;;;;;;5090309;28;20019;-76
2022/04/12 10:40:16;;;;;;;;;;;18.80;72.30;;;;;;5089461;28;19930;-76
2022/04/12 10:42:42;;;;;;;;;;;19.00;73.40;;;;;;5090739;28;20014;-77
2022/04/12 10:45:07;;;;;;;;;;;19.20;74.70;;;;;;5087681;28;19928;-77
2022/04/12 10:47:34;;;;;;;;;;;19.60;73.40;;;;;;5087075;28;19925;-76
2022/04/12 10:50:01;;;;;;;;;;;19.90;72.10;;;;;;5076845;28;19924;-76
2022/04/12 10:52:32;;;;;;;;;;;20.20;70.50;;;;;;5069458;28;19928;-76
2022/04/12 10:54:59;;;;;;;;;;;20.40;66.70;;;;;;5073528;28;19931;-77
2022/04/12 10:57:26;;;;;;;;;;;20.30;64.80;;;;;;5070760;28;19935;-76
2022/04/12 10:59:57;;;;;;;;;;;20.30;66.70;;;;;;5086054;28;20370;-76
2022/04/12 11:02:27;;;;;;;;;;;20.40;64.10;;;;;;5091206;28;19932;-76
2022/04/12 11:04:53;;;;;;;;;;;20.50;64.90;;;;;;5088845;28;19967;-76
2022/04/12 11:07:28;;;;;;;;;;;20.70;64.20;;;;;;5090301;28;19977;-76
2022/04/12 11:10:23;;;;;;;;;;;20.70;62.70;;;;;;5075545;28;19931;-76
2022/04/12 11:12:50;;;;;;;;;;;20.70;63.50;;;;;;5057279;28;19931;-76
2022/04/12 11:15:19;;;;;;;;;;;20.50;63.30;;;;;;5085980;28;19928;-76
2022/04/12 11:17:45;;;;;;;;;;;20.00;61.20;;;;;;5090165;28;19938;-75
2022/04/12 11:20:19;;;;;;;;;;;19.60;64.20;;;;;;5074350;28;19932;-75
2022/04/12 11:22:54;;;;;;;;;;;19.30;66.50;;;;;;5073030;28;19970;-76
2022/04/12 11:25:21;;;;;;;;;;;19.60;69.00;;;;;;5069938;28;19926;-76
2022/04/12 11:27:49;;;;;;;;;;;19.80;63.80;;;;;;5070685;28;19924;-74
2022/04/12 11:30:14;;;;;;;;;;;20.00;64.50;;;;;;5082264;28;19928;-76
2022/04/12 11:32:43;;;;;;;;;;;20.20;65.50;;;;;;5089940;28;19977;-75
2022/04/12 11:35:09;;;;;;;;;;;20.40;64.70;;;;;;5082210;28;19924;-75
2022/04/12 11:37:38;;;;;;;;;;;20.50;63.90;;;;;;5088905;28;19971;-75
2022/04/12 11:40:04;;;;;;;;;;;20.70;64.50;;;;;;5086642;28;19932;-76
2022/04/12 11:42:29;;;;;;;;;;;20.80;63.30;;;;;;5088987;28;19978;-76
2022/04/12 11:44:56;;;;;;;;;;;20.90;61.70;;;;;;5084599;28;19969;-76
2022/04/12 11:47:38;;;;;;;;;;;21.00;63.00;;;;;;5089918;28;19927;-75
2022/04/12 11:50:13;;;;;;;;;;;21.10;62.00;;;;;;5082400;28;19938;-76
2022/04/12 11:52:39;;;;;;;;;;;21.20;61.50;;;;;;5068798;28;19925;-75
2022/04/12 11:55:05;;;;;;;;;;;21.30;61.20;;;;;;5077025;28;19925;-75
2022/04/12 11:57:31;;;;;;;;;;;21.30;60.50;;;;;;5088893;28;19924;-75
2022/04/12 11:59:58;;;;;;;;;;;21.10;60.70;;;;;;5088941;28;19924;-75
2022/04/12 12:02:25;;;;;;;;;;;21.10;61.60;;;;;;5088651;28;19972;-74
2022/04/12 12:04:51;;;;;;;;;;;21.20;61.70;;;;;;5084225;28;20302;-75
2022/04/12 12:07:17;;;;;;;;;;;21.30;62.20;;;;;;5078727;28;19960;-75
2022/04/12 12:09:54;;;;;;;;;;;21.50;61.80;;;;;;5087260;28;19982;-76
2022/04/12 12:12:19;;;;;;;;;;;21.50;60.80;;;;;;5088343;28;19930;-75
2022/04/12 12:14:45;;;;;;;;;;;21.50;61.20;;;;;;5082999;28;20010;-75
2022/04/12 12:17:18;;;;;;;;;;;21.40;59.60;;;;;;5089466;28;19932;-75
2022/04/12 12:19:44;;;;;;;;;;;21.40;60.90;;;;;;5088489;28;19924;-75
2022/04/12 12:22:10;;;;;;;;;;;21.30;58.40;;;;;;5089704;28;19935;-75
2022/04/12 12:24:54;;;;;;;;;;;21.10;59.10;;;;;;5089319;28;19947;-75
2022/04/12 12:27:26;;;;;;;;;;;21.10;60.80;;;;;;5089696;28;20378;-75
2022/04/12 12:29:51;;;;;;;;;;;21.10;60.00;;;;;;5089481;28;19974;-75
2022/04/12 12:32:17;;;;;;;;;;;21.10;60.40;;;;;;5088235;28;20371;-75
2022/04/12 12:34:44;;;;;;;;;;;21.20;60.20;;;;;;5089866;28;20495;-76
2022/04/12 12:37:11;;;;;;;;;;;21.40;59.00;;;;;;5089197;28;19924;-75
2022/04/12 12:39:39;;;;;;;;;;;21.30;56.70;;;;;;5088878;28;20283;-75
2022/04/12 12:42:06;;;;;;;;;;;21.20;59.50;;;;;;5097799;28;20329;-75
2022/04/12 12:44:32;;;;;;;;;;;21.00;59.80;;;;;;5109818;28;19924;-75
2022/04/12 12:46:59;;;;;;;;;;;21.00;59.00;;;;;;5109783;28;19927;-75
2022/04/12 12:49:33;;;;;;;;;;;21.10;61.50;;;;;;5091441;28;19923;-75
2022/04/12 12:52:01;;;;;;;;;;;21.10;61.50;;;;;;5108635;28;19939;-75
2022/04/12 12:54:27;;;;;;;;;;;21.00;60.40;;;;;;5108225;28;19924;-75
2022/04/12 12:56:52;;;;;;;;;;;21.00;61.00;;;;;;5108819;28;19968;-75
2022/04/12 12:59:19;;;;;;;;;;;21.00;62.80;;;;;;5109534;28;19929;-75
2022/04/12 13:01:45;;;;;;;;;;;21.10;61.60;;;;;;5108682;28;20324;-75
2022/04/12 13:04:20;;;;;;;;;;;21.30;61.20;;;;;;5107774;28;19928;-75
2022/04/12 13:06:46;;;;;;;;;;;21.30;59.70;;;;;;5109982;28;20405;-75
2022/04/12 13:09:11;;;;;;;;;;;21.20;58.50;;;;;;5107893;28;19928;-75
2022/04/12 13:11:37;;;;;;;;;;;21.30;61.30;;;;;;5108117;28;20279;-75
2022/04/12 13:14:02;;;;;;;;;;;21.40;59.90;;;;;;5109261;28;19932;-75
2022/04/12 13:16:28;;;;;;;;;;;21.60;59.30;;;;;;5107920;28;19927;-75
2022/04/12 13:19:03;;;;;;;;;;;21.50;59.20;;;;;;5094455;28;20040;-75
2022/04/12 13:21:29;;;;;;;;;;;21.50;60.10;;;;;;5113111;28;20783;-75
2022/04/12 13:23:54;;;;;;;;;;;21.40;59.20;;;;;;5102573;28;20062;-75
2022/04/12 13:26:20;;;;;;;;;;;21.50;59.70;;;;;;5084599;28;19924;-75
2022/04/12 13:28:45;;;;;;;;;;;21.60;58.80;;;;;;5088281;28;20383;-75
2022/04/12 13:31:11;;;;;;;;;;;21.60;57.80;;;;;;5087325;28;19928;-75
2022/04/12 13:33:36;;;;;;;;;;;21.70;61.10;;;;;;5072987;28;19932;-75
2022/04/12 13:36:02;;;;;;;;;;;21.70;60.60;;;;;;5086143;28;20011;-80
2022/04/12 13:38:27;;;;;;;;;;;21.70;59.10;;;;;;5056503;28;19924;-75
2022/04/12 13:40:53;;;;;;;;;;;21.60;59.60;;;;;;5085517;28;19925;-75
2022/04/12 13:43:18;;;;;;;;;;;21.40;58.70;;;;;;5092881;28;19927;-75
2022/04/12 13:45:44;;;;;;;;;;;21.20;60.00;;;;;;5083920;28;19933;-75
2022/04/12 13:48:10;;;;;;;;;;;21.10;59.10;;;;;;5082029;28;19924;-75
2022/04/12 13:50:35;;;;;;;;;;;20.80;59.10;;;;;;5088929;28;19973;-75
2022/04/12 13:53:01;;;;;;;;;;;20.70;59.80;;;;;;5089723;28;19924;-75
2022/04/12 13:55:26;;;;;;;;;;;20.60;60.20;;;;;;5089478;28;20032;-75
2022/04/12 13:57:52;;;;;;;;;;;20.60;60.20;;;;;;5088392;28;19931;-75
2022/04/12 14:00:23;;;;;;;;;;;20.60;61.00;;;;;;5091221;28;20041;-75
2022/04/12 14:02:49;;;;;;;;;;;20.70;61.00;;;;;;5087437;28;20418;-74
2022/04/12 14:05:15;;;;;;;;;;;20.70;61.70;;;;;;5075826;28;20035;-74
2022/04/12 14:07:42;;;;;;;;;;;20.70;61.00;;;;;;5091725;28;20031;-74
2022/04/12 14:10:08;;;;;;;;;;;20.70;60.30;;;;;;5087915;28;19949;-74
2022/04/12 14:12:34;;;;;;;;;;;20.70;60.40;;;;;;5091890;28;19998;-75
2022/04/12 14:14:59;;;;;;;;;;;20.70;62.40;;;;;;5091811;28;19924;-75
2022/04/12 14:17:25;;;;;;;;;;;20.80;63.10;;;;;;5085311;28;19929;-75
2022/04/12 14:19:50;;;;;;;;;;;20.80;62.30;;;;;;5090687;28;19925;-75